Time;durP1;ratioP1;P1;durP2;ratioP2;P2;SDS_P1;SDS_P2;PMS_P1;PMS_P2;Temp;Humidity;BMP_temperature;BMP_pressure;BME280_temperature;BME280_humidity;BME280_pressure;Samples;Min_cycle;Max_cycle;Signal;HPM_P1;HPM_P2
2022/03/17 00:02:16;;;;;;;298.77;93.68;;;;;;;;;;5004271;28;20026;-86
2022/03/17 00:04:42;;;;;;;293.30;90.43;;;;;;;;;;5024439;28;20023;-86
2022/03/17 00:07:09;;;;;;;294.17;90.72;;;;;;;;;;5011693;28;20508;-86
2022/03/17 00:09:35;;;;;;;337.27;101.53;;;;;;;;;;5010102;28;20421;-86
2022/03/17 00:12:03;;;;;;;292.80;91.00;;;;;;;;;;5011848;28;20409;-86
2022/03/17 00:14:30;;;;;;;298.88;95.70;;;;;;;;;;4992353;28;20030;-85
2022/03/17 00:16:56;;;;;;;262.50;82.70;;;;;;;;;;5005298;28;20069;-87
2022/03/17 00:19:23;;;;;;;210.70;72.88;;;;;;;;;;5012870;28;20432;-87
2022/03/17 00:21:49;;;;;;;235.38;78.32;;;;;;;;;;5021156;28;20477;-86
2022/03/17 00:24:17;;;;;;;187.77;66.63;;;;;;;;;;5025216;28;20027;-87
2022/03/17 00:27:03;;;;;;;154.00;54.97;;;;;;;;;;5011751;28;20488;-89
2022/03/17 00:29:29;;;;;;;134.45;53.08;;;;;;;;;;5014781;28;20026;-88
2022/03/17 00:32:23;;;;;;;162.85;55.40;;;;;;;;;;5010108;28;20030;-87
2022/03/17 00:37:35;;;;;;;240.32;79.47;;;;;;;;;;5002751;28;20408;-88
2022/03/17 00:40:01;;;;;;;250.23;81.90;;;;;;;;;;5012934;28;20079;-87
2022/03/17 00:42:28;;;;;;;234.07;77.65;;;;;;;;;;5012741;28;20382;-86
2022/03/17 00:44:55;;;;;;;230.15;75.72;;;;;;;;;;5002281;28;20088;-87
2022/03/17 00:47:26;;;;;;;237.32;82.03;;;;;;;;;;5005973;28;20038;-86
2022/03/17 00:49:52;;;;;;;277.25;86.80;;;;;;;;;;5026209;28;20532;-85
2022/03/17 00:52:20;;;;;;;263.73;85.88;;;;;;;;;;5002704;28;20145;-86
2022/03/17 00:54:48;;;;;;;241.27;80.72;;;;;;;;;;5027162;28;20077;-90
2022/03/17 00:57:15;;;;;;;243.80;84.28;;;;;;;;;;5011546;28;20030;-85
2022/03/17 00:59:41;;;;;;;246.52;82.45;;;;;;;;;;5028293;28;20021;-87
2022/03/17 01:02:09;;;;;;;231.90;78.40;;;;;;;;;;5006157;28;21032;-87
2022/03/17 01:04:36;;;;;;;240.05;81.00;;;;;;;;;;5024815;28;20121;-87
2022/03/17 01:07:13;;;;;;;224.90;75.75;;;;;;;;;;5011427;28;20516;-87
2022/03/17 01:09:39;;;;;;;230.27;77.18;;;;;;;;;;5024941;28;20388;-87
2022/03/17 01:12:06;;;;;;;208.10;73.88;;;;;;;;;;5011773;28;20037;-86
2022/03/17 01:14:32;;;;;;;237.65;78.72;;;;;;;;;;5021620;28;20477;-87
2022/03/17 01:16:59;;;;;;;223.68;76.15;;;;;;;;;;5003667;28;20046;-88
2022/03/17 01:19:36;;;;;;;215.07;74.60;;;;;;;;;;5010241;28;20424;-88
2022/03/17 01:22:05;;;;;;;233.98;76.38;;;;;;;;;;5010743;28;20420;-87
2022/03/17 01:24:45;;;;;;;225.73;75.75;;;;;;;;;;5003751;28;20026;-85
2022/03/17 01:27:13;;;;;;;221.13;72.80;;;;;;;;;;5022463;28;20038;-85
2022/03/17 01:29:43;;;;;;;229.77;75.72;;;;;;;;;;5003786;28;20022;-85
2022/03/17 01:32:10;;;;;;;238.40;79.78;;;;;;;;;;5007364;28;20552;-85
2022/03/17 01:34:37;;;;;;;254.52;79.88;;;;;;;;;;4998766;28;20085;-85
2022/03/17 01:37:04;;;;;;;237.77;80.40;;;;;;;;;;5021534;28;20117;-85
2022/03/17 01:39:34;;;;;;;252.73;83.53;;;;;;;;;;5009111;28;20484;-86
2022/03/17 01:42:03;;;;;;;238.73;80.80;;;;;;;;;;5010851;28;20468;-86
2022/03/17 01:44:31;;;;;;;241.75;79.30;;;;;;;;;;5010102;28;20030;-85
2022/03/17 01:49:44;;;;;;;236.77;76.68;;;;;;;;;;5009746;28;20516;-85
2022/03/17 01:52:10;;;;;;;208.85;72.28;;;;;;;;;;5009308;28;20481;-86
2022/03/17 01:54:38;;;;;;;212.02;75.43;;;;;;;;;;5017044;28;20037;-86
2022/03/17 01:57:05;;;;;;;220.27;74.18;;;;;;;;;;5012189;28;20487;-85
2022/03/17 01:59:32;;;;;;;226.27;76.35;;;;;;;;;;5017942;28;20037;-87
2022/03/17 02:01:58;;;;;;;221.27;76.50;;;;;;;;;;5012629;28;20018;-85
2022/03/17 02:04:25;;;;;;;214.80;75.50;;;;;;;;;;5005048;28;20034;-85
2022/03/17 02:06:52;;;;;;;234.90;77.57;;;;;;;;;;5027210;28;20379;-84
2022/03/17 02:09:26;;;;;;;228.52;80.60;;;;;;;;;;4995057;28;20038;-85
2022/03/17 02:14:51;;;;;;;264.70;86.38;;;;;;;;;;5010996;28;20496;-86
2022/03/17 02:17:18;;;;;;;244.00;82.43;;;;;;;;;;5031920;28;20022;-86
2022/03/17 02:19:45;;;;;;;257.55;83.28;;;;;;;;;;5026977;28;20496;-86
2022/03/17 02:22:13;;;;;;;268.45;90.68;;;;;;;;;;5011608;28;20094;-86
2022/03/17 02:27:33;;;;;;;287.48;94.53;;;;;;;;;;5006471;28;20041;-86
2022/03/17 02:29:59;;;;;;;268.77;87.43;;;;;;;;;;5010334;28;20092;-86
2022/03/17 02:32:26;;;;;;;248.70;85.85;;;;;;;;;;5011704;28;20026;-87
2022/03/17 02:34:54;;;;;;;274.13;92.38;;;;;;;;;;5008872;28;20042;-87
2022/03/17 02:37:21;;;;;;;297.60;99.72;;;;;;;;;;5008794;28;20034;-86
2022/03/17 02:39:47;;;;;;;306.33;96.72;;;;;;;;;;5008455;28;20046;-86
2022/03/17 02:42:14;;;;;;;320.67;98.57;;;;;;;;;;5013428;28;20394;-86
2022/03/17 02:44:40;;;;;;;286.92;92.10;;;;;;;;;;5033713;28;20399;-86
2022/03/17 02:47:08;;;;;;;314.40;100.53;;;;;;;;;;5013278;28;20033;-86
2022/03/17 02:49:38;;;;;;;343.73;105.13;;;;;;;;;;5012227;28;20033;-86
2022/03/17 02:52:07;;;;;;;343.58;109.72;;;;;;;;;;5008017;28;20042;-85
2022/03/17 02:54:37;;;;;;;436.38;134.35;;;;;;;;;;5010220;28;20032;-85
2022/03/17 02:57:16;;;;;;;444.52;140.65;;;;;;;;;;5029811;28;20053;-87
2022/03/17 02:59:42;;;;;;;431.75;139.82;;;;;;;;;;5011206;28;20022;-85
2022/03/17 03:02:13;;;;;;;450.23;140.10;;;;;;;;;;5007283;28;20036;-84
2022/03/17 03:04:40;;;;;;;490.35;142.63;;;;;;;;;;5012934;28;20029;-83
2022/03/17 03:07:06;;;;;;;399.80;126.65;;;;;;;;;;5011566;28;20026;-83
2022/03/17 03:09:33;;;;;;;447.60;134.35;;;;;;;;;;5010549;28;20129;-83
2022/03/17 03:12:00;;;;;;;406.77;130.40;;;;;;;;;;5001054;28;20030;-84
2022/03/17 03:14:30;;;;;;;453.52;138.35;;;;;;;;;;5012274;28;20026;-84
2022/03/17 03:16:56;;;;;;;417.80;129.95;;;;;;;;;;5033795;28;20108;-85
2022/03/17 03:19:23;;;;;;;477.88;144.82;;;;;;;;;;5012717;28;20457;-85
2022/03/17 03:21:52;;;;;;;501.25;149.40;;;;;;;;;;4662306;28;10000323;-85
2022/03/17 03:24:18;;;;;;;540.10;158.95;;;;;;;;;;5004109;28;20018;-85
2022/03/17 03:26:45;;;;;;;419.30;140.77;;;;;;;;;;5009547;28;20422;-86
2022/03/17 03:31:42;;;;;;;483.27;144.85;;;;;;;;;;5006929;28;20039;-84
2022/03/17 03:34:09;;;;;;;470.65;135.48;;;;;;;;;;5012893;28;20041;-82
2022/03/17 03:39:22;;;;;;;461.27;135.77;;;;;;;;;;5027186;28;20087;-84
2022/03/17 03:41:49;;;;;;;344.83;110.22;;;;;;;;;;5013456;28;20072;-84
2022/03/17 03:44:17;;;;;;;386.40;115.70;;;;;;;;;;5030080;28;20034;-84
2022/03/17 03:46:45;;;;;;;321.25;103.65;;;;;;;;;;5026772;28;20057;-84
2022/03/17 03:49:11;;;;;;;317.63;106.38;;;;;;;;;;5033334;28;20056;-83
2022/03/17 03:51:39;;;;;;;408.25;118.00;;;;;;;;;;5016311;28;20452;-85
2022/03/17 03:54:18;;;;;;;305.95;99.85;;;;;;;;;;5016750;28;20025;-85
2022/03/17 03:56:44;;;;;;;343.50;106.13;;;;;;;;;;5004896;28;20022;-85
2022/03/17 03:59:21;;;;;;;344.05;102.68;;;;;;;;;;5033783;28;20412;-85
2022/03/17 04:01:48;;;;;;;341.42;102.40;;;;;;;;;;5008907;28;20128;-85
2022/03/17 04:04:20;;;;;;;262.25;85.47;;;;;;;;;;5011399;28;20045;-86
2022/03/17 04:06:49;;;;;;;259.35;85.25;;;;;;;;;;5019164;28;20021;-86
2022/03/17 04:09:16;;;;;;;246.27;87.55;;;;;;;;;;5032359;28;20083;-86
2022/03/17 04:11:42;;;;;;;250.18;84.28;;;;;;;;;;5020725;28;20113;-86
2022/03/17 04:14:09;;;;;;;252.50;83.53;;;;;;;;;;5013152;28;20488;-86
2022/03/17 04:16:35;;;;;;;251.30;83.60;;;;;;;;;;5015563;28;20032;-86
2022/03/17 04:19:03;;;;;;;234.77;81.93;;;;;;;;;;5032977;28;20124;-86
2022/03/17 04:21:30;;;;;;;256.08;89.05;;;;;;;;;;5002867;28;20022;-87
2022/03/17 04:23:57;;;;;;;262.15;91.80;;;;;;;;;;5016348;28;20029;-87
2022/03/17 04:26:23;;;;;;;222.75;83.00;;;;;;;;;;5015870;28;20030;-87
2022/03/17 04:28:50;;;;;;;253.68;92.07;;;;;;;;;;5023475;28;20484;-86
2022/03/17 04:31:17;;;;;;;305.35;106.28;;;;;;;;;;5031903;28;20119;-87
2022/03/17 04:33:43;;;;;;;298.80;102.93;;;;;;;;;;5001866;28;20030;-87
2022/03/17 04:36:13;;;;;;;345.52;115.35;;;;;;;;;;5015874;28;20073;-87
2022/03/17 04:38:39;;;;;;;259.33;95.97;;;;;;;;;;5033326;28;20029;-85
2022/03/17 04:41:06;;;;;;;321.08;107.10;;;;;;;;;;5010095;28;20029;-86
2022/03/17 04:43:32;;;;;;;251.05;95.03;;;;;;;;;;5028704;28;20469;-87
2022/03/17 04:46:00;;;;;;;279.33;101.70;;;;;;;;;;5026380;28;20477;-87
2022/03/17 04:48:26;;;;;;;243.38;87.50;;;;;;;;;;4674074;28;10000075;-87
2022/03/17 04:50:55;;;;;;;375.15;111.43;;;;;;;;;;5030906;28;20033;-86
2022/03/17 04:53:27;;;;;;;268.50;97.05;;;;;;;;;;5025730;28;20388;-86
2022/03/17 04:56:04;;;;;;;249.52;91.70;;;;;;;;;;5013937;28;20508;-85
2022/03/17 04:58:31;;;;;;;352.88;113.30;;;;;;;;;;5021331;28;20025;-88
2022/03/17 05:01:00;;;;;;;357.48;110.72;;;;;;;;;;5003183;28;20543;-85
2022/03/17 05:03:27;;;;;;;236.60;89.55;;;;;;;;;;5011519;28;20033;-85
2022/03/17 05:05:56;;;;;;;281.92;101.20;;;;;;;;;;5013402;28;20029;-85
2022/03/17 05:08:23;;;;;;;260.80;95.82;;;;;;;;;;5025535;28;20043;-86
2022/03/17 05:10:52;;;;;;;273.13;101.47;;;;;;;;;;5011183;28;20044;-86
2022/03/17 05:13:19;;;;;;;278.75;103.38;;;;;;;;;;5033736;28;20029;-86
2022/03/17 05:15:49;;;;;;;317.27;107.35;;;;;;;;;;5008620;28;20013;-85
2022/03/17 05:18:15;;;;;;;242.45;92.38;;;;;;;;;;5030676;28;20057;-85
2022/03/17 05:20:43;;;;;;;220.20;86.03;;;;;;;;;;5025947;28;20068;-86
2022/03/17 05:23:10;;;;;;;269.80;97.47;;;;;;;;;;5021607;28;20026;-86
2022/03/17 05:25:39;;;;;;;229.10;86.53;;;;;;;;;;5033761;28;20130;-86
2022/03/17 05:28:06;;;;;;;258.67;99.57;;;;;;;;;;5014513;28;20022;-85
2022/03/17 05:30:32;;;;;;;261.30;102.20;;;;;;;;;;5031181;28;20025;-86
2022/03/17 05:32:59;;;;;;;232.40;92.93;;;;;;;;;;5014329;28;20481;-86
2022/03/17 05:35:26;;;;;;;253.10;99.50;;;;;;;;;;5014432;28;20111;-85
2022/03/17 05:37:53;;;;;;;250.85;97.65;;;;;;;;;;5009283;28;20025;-85
2022/03/17 05:40:21;;;;;;;285.13;108.60;;;;;;;;;;5025775;28;20469;-87
2022/03/17 05:42:50;;;;;;;322.15;117.50;;;;;;;;;;5014335;28;20021;-85
2022/03/17 05:45:16;;;;;;;327.40;118.47;;;;;;;;;;5013562;28;20536;-86
2022/03/17 05:47:50;;;;;;;283.17;113.32;;;;;;;;;;5014182;28;20592;-86
2022/03/17 05:50:17;;;;;;;307.23;118.68;;;;;;;;;;5023560;28;20029;-86
2022/03/17 05:52:44;;;;;;;338.25;122.78;;;;;;;;;;5039180;28;20108;-86
2022/03/17 05:55:11;;;;;;;379.60;132.43;;;;;;;;;;5029931;28;20112;-86
2022/03/17 05:57:40;;;;;;;244.65;104.70;;;;;;;;;;5014037;28;20025;-86
2022/03/17 06:00:07;;;;;;;260.60;106.70;;;;;;;;;;5012755;28;20041;-84
2022/03/17 06:02:34;;;;;;;247.60;102.53;;;;;;;;;;5018384;28;20029;-84
2022/03/17 06:05:01;;;;;;;238.05;101.57;;;;;;;;;;5019179;28;20550;-83
2022/03/17 06:07:37;;;;;;;319.80;120.95;;;;;;;;;;5012961;28;20469;-84
2022/03/17 06:10:08;;;;;;;244.10;103.65;;;;;;;;;;5013893;28;20613;-84
2022/03/17 06:12:35;;;;;;;357.38;126.43;;;;;;;;;;5021503;28;20015;-83
2022/03/17 06:15:02;;;;;;;293.45;115.07;;;;;;;;;;5010493;28;20025;-83
2022/03/17 06:17:38;;;;;;;278.38;111.80;;;;;;;;;;5014809;28;20017;-83
2022/03/17 06:20:04;;;;;;;419.85;138.63;;;;;;;;;;5027058;28;20029;-84
2022/03/17 06:22:33;;;;;;;312.85;120.70;;;;;;;;;;5010001;28;20088;-84
2022/03/17 06:24:59;;;;;;;293.58;115.57;;;;;;;;;;5011226;28;20096;-83
2022/03/17 06:27:26;;;;;;;378.20;133.30;;;;;;;;;;5012814;28;20053;-84
2022/03/17 06:29:52;;;;;;;320.42;123.30;;;;;;;;;;5013815;28;20026;-84
2022/03/17 06:32:26;;;;;;;331.38;123.03;;;;;;;;;;4773159;28;10001136;-84
2022/03/17 06:34:53;;;;;;;399.08;145.65;;;;;;;;;;5007066;28;20263;-85
2022/03/17 06:37:19;;;;;;;439.00;153.30;;;;;;;;;;4680341;28;10000375;-83
2022/03/17 06:39:46;;;;;;;405.50;144.65;;;;;;;;;;5019212;28;20485;-84
2022/03/17 06:42:12;;;;;;;340.40;129.70;;;;;;;;;;5008376;28;20120;-84
2022/03/17 06:44:39;;;;;;;283.02;118.18;;;;;;;;;;5018297;28;20045;-84
2022/03/17 06:47:05;;;;;;;355.98;132.13;;;;;;;;;;5007598;28;20052;-84
2022/03/17 06:49:32;;;;;;;302.98;120.90;;;;;;;;;;5030048;28;20060;-84
2022/03/17 06:51:58;;;;;;;331.77;132.65;;;;;;;;;;5011708;28;20418;-84
2022/03/17 06:54:25;;;;;;;324.25;133.18;;;;;;;;;;5028552;28;20076;-84
2022/03/17 06:56:52;;;;;;;310.25;126.20;;;;;;;;;;5012991;28;20036;-84
2022/03/17 06:59:18;;;;;;;308.60;122.07;;;;;;;;;;5020071;28;20303;-84
2022/03/17 07:01:44;;;;;;;302.02;123.05;;;;;;;;;;5014809;28;20064;-84
2022/03/17 07:04:11;;;;;;;313.10;126.85;;;;;;;;;;5023733;28;20108;-84
2022/03/17 07:06:37;;;;;;;290.33;124.05;;;;;;;;;;5014168;28;20037;-84
2022/03/17 07:09:04;;;;;;;298.25;123.53;;;;;;;;;;5016959;28;20037;-85
2022/03/17 07:11:31;;;;;;;339.17;131.48;;;;;;;;;;5013071;28;20041;-85
2022/03/17 07:13:57;;;;;;;277.55;114.72;;;;;;;;;;5030906;28;20025;-85
2022/03/17 07:16:23;;;;;;;260.33;109.93;;;;;;;;;;5029157;28;20045;-88
2022/03/17 07:18:53;;;;;;;251.07;108.05;;;;;;;;;;5016680;28;20542;-88
2022/03/17 07:21:19;;;;;;;264.83;111.65;;;;;;;;;;5031036;28;20022;-89
2022/03/17 07:23:48;;;;;;;250.02;100.30;;;;;;;;;;5014355;28;20128;-88
2022/03/17 07:26:15;;;;;;;240.45;100.22;;;;;;;;;;5013191;28;20056;-88
2022/03/17 07:28:44;;;;;;;258.15;100.80;;;;;;;;;;5016092;28;20021;-87
2022/03/17 07:31:10;;;;;;;319.48;132.38;;;;;;;;;;5012717;28;20037;-87
2022/03/17 07:33:37;;;;;;;307.33;127.85;;;;;;;;;;5003746;28;20501;-86
2022/03/17 07:36:05;;;;;;;313.17;127.22;;;;;;;;;;5005988;28;20727;-87
2022/03/17 07:38:32;;;;;;;349.48;130.13;;;;;;;;;;5013565;28;20034;-87
2022/03/17 07:40:58;;;;;;;338.52;130.10;;;;;;;;;;5031362;28;20029;-87
2022/03/17 07:43:25;;;;;;;257.55;114.43;;;;;;;;;;5025455;28;20032;-87
2022/03/17 07:45:53;;;;;;;235.13;104.30;;;;;;;;;;5038997;28;20030;-87
2022/03/17 07:48:20;;;;;;;333.63;128.73;;;;;;;;;;5030018;28;20025;-87
2022/03/17 07:50:50;;;;;;;351.10;146.82;;;;;;;;;;5011968;28;20034;-87
2022/03/17 07:53:17;;;;;;;295.13;136.40;;;;;;;;;;5015901;28;20037;-87
2022/03/17 07:55:44;;;;;;;321.73;144.20;;;;;;;;;;5014596;28;20033;-87
2022/03/17 07:58:10;;;;;;;319.55;148.40;;;;;;;;;;5010229;28;20022;-88
2022/03/17 08:00:42;;;;;;;429.85;209.27;;;;;;;;;;5017632;28;20508;-87
2022/03/17 08:03:08;;;;;;;342.40;157.57;;;;;;;;;;5008052;28;20076;-87
2022/03/17 08:05:39;;;;;;;328.42;150.60;;;;;;;;;;5015053;28;20041;-87
2022/03/17 08:08:05;;;;;;;282.30;128.02;;;;;;;;;;5014685;28;20091;-87
2022/03/17 08:10:33;;;;;;;231.35;106.70;;;;;;;;;;5009695;28;20025;-87
2022/03/17 08:13:00;;;;;;;225.07;103.63;;;;;;;;;;5010336;28;20037;-87
2022/03/17 08:15:30;;;;;;;198.57;93.38;;;;;;;;;;5010103;28;20600;-87
2022/03/17 08:17:56;;;;;;;190.15;92.30;;;;;;;;;;5033162;28;20037;-87
2022/03/17 08:20:23;;;;;;;182.02;84.80;;;;;;;;;;5012378;28;20397;-88
2022/03/17 08:22:50;;;;;;;187.30;85.47;;;;;;;;;;5018329;28;20026;-88
2022/03/17 08:25:18;;;;;;;152.75;71.65;;;;;;;;;;5014436;28;20032;-87
2022/03/17 08:27:45;;;;;;;150.95;70.20;;;;;;;;;;5006752;28;20507;-87
2022/03/17 08:30:22;;;;;;;134.43;63.53;;;;;;;;;;5013846;28;20476;-87
2022/03/17 08:32:49;;;;;;;138.52;66.57;;;;;;;;;;5012752;28;20120;-87
2022/03/17 08:35:17;;;;;;;120.82;58.85;;;;;;;;;;5024899;28;20038;-87
2022/03/17 08:37:46;;;;;;;120.70;61.97;;;;;;;;;;5008539;28;20061;-87
2022/03/17 08:40:13;;;;;;;113.88;57.20;;;;;;;;;;5025870;28;20029;-86
2022/03/17 08:42:42;;;;;;;107.10;53.17;;;;;;;;;;5022732;28;20100;-87
2022/03/17 08:50:47;;;;;;;96.47;46.40;;;;;;;;;;5009063;28;20504;-86
2022/03/17 08:53:17;;;;;;;91.15;42.25;;;;;;;;;;5013043;28;20481;-86
2022/03/17 08:55:44;;;;;;;97.55;45.55;;;;;;;;;;5013778;28;20045;-86
2022/03/17 08:58:12;;;;;;;93.97;44.08;;;;;;;;;;5027907;28;20025;-86
2022/03/17 09:00:40;;;;;;;94.30;45.15;;;;;;;;;;5008212;28;20539;-86
2022/03/17 09:03:19;;;;;;;103.40;50.15;;;;;;;;;;5030992;28;20198;-86
2022/03/17 09:05:45;;;;;;;97.88;46.58;;;;;;;;;;5010140;28;20392;-87
2022/03/17 09:08:16;;;;;;;135.75;59.42;;;;;;;;;;5030974;28;20029;-84
2022/03/17 09:10:42;;;;;;;108.35;52.60;;;;;;;;;;5013644;28;20025;-85
2022/03/17 09:13:11;;;;;;;121.03;57.20;;;;;;;;;;5029983;28;20056;-86
2022/03/17 09:15:41;;;;;;;105.47;52.22;;;;;;;;;;5013932;28;20060;-86
2022/03/17 09:18:10;;;;;;;107.32;53.78;;;;;;;;;;5011287;28;20029;-85
2022/03/17 09:20:37;;;;;;;116.38;55.55;;;;;;;;;;5011202;28;20029;-85
2022/03/17 09:23:04;;;;;;;104.70;51.97;;;;;;;;;;5027802;28;20044;-85
2022/03/17 09:25:31;;;;;;;106.20;50.88;;;;;;;;;;5013751;28;20026;-85
2022/03/17 09:27:57;;;;;;;105.28;49.17;;;;;;;;;;5013511;28;20546;-85
2022/03/17 09:30:24;;;;;;;94.75;45.83;;;;;;;;;;5012976;28;20033;-85
2022/03/17 09:32:54;;;;;;;81.28;41.33;;;;;;;;;;5010667;28;20484;-85
2022/03/17 09:35:23;;;;;;;73.88;37.10;;;;;;;;;;5010112;28;20049;-85
2022/03/17 09:37:49;;;;;;;73.05;35.35;;;;;;;;;;5025495;28;20021;-85
2022/03/17 09:40:16;;;;;;;68.32;34.42;;;;;;;;;;5006737;28;20025;-85
2022/03/17 09:42:47;;;;;;;73.82;37.55;;;;;;;;;;5025845;28;20515;-84
2022/03/17 09:45:14;;;;;;;62.53;31.52;;;;;;;;;;5022536;28;20041;-84
2022/03/17 09:47:44;;;;;;;66.25;35.08;;;;;;;;;;5025391;28;20109;-84
2022/03/17 09:50:13;;;;;;;61.70;34.03;;;;;;;;;;5025146;28;20488;-85
2022/03/17 09:52:44;;;;;;;55.53;30.05;;;;;;;;;;5010645;28;20476;-84
2022/03/17 09:55:11;;;;;;;64.97;32.08;;;;;;;;;;5017653;28;20026;-84
2022/03/17 09:57:42;;;;;;;59.38;31.55;;;;;;;;;;5008479;28;20024;-85
2022/03/17 10:00:12;;;;;;;63.60;34.08;;;;;;;;;;5028480;28;20030;-85
2022/03/17 10:02:40;;;;;;;67.35;33.58;;;;;;;;;;5007452;28;20450;-84
2022/03/17 10:05:11;;;;;;;64.35;33.05;;;;;;;;;;5021526;28;20442;-84
2022/03/17 10:07:41;;;;;;;55.05;28.13;;;;;;;;;;5020601;28;20029;-84
2022/03/17 10:10:08;;;;;;;53.50;28.80;;;;;;;;;;5010463;28;20495;-83
2022/03/17 10:12:34;;;;;;;55.42;27.63;;;;;;;;;;5020821;28;20488;-83
2022/03/17 10:15:01;;;;;;;48.83;23.35;;;;;;;;;;5009205;28;20045;-84
2022/03/17 10:17:29;;;;;;;42.80;22.30;;;;;;;;;;5026991;28;20477;-85
2022/03/17 10:20:14;;;;;;;44.63;21.75;;;;;;;;;;5020433;28;20028;-85
2022/03/17 10:22:49;;;;;;;47.08;22.67;;;;;;;;;;5018640;28;20029;-85
2022/03/17 10:25:20;;;;;;;51.13;24.27;;;;;;;;;;5004324;28;20029;-82
2022/03/17 10:27:51;;;;;;;53.55;28.52;;;;;;;;;;5008093;28;20017;-84
2022/03/17 10:30:32;;;;;;;67.13;32.00;;;;;;;;;;5029955;28;20434;-84
2022/03/17 10:33:20;;;;;;;67.70;34.30;;;;;;;;;;5025169;28;20026;-84
2022/03/17 10:35:49;;;;;;;89.68;44.22;;;;;;;;;;5020128;28;20494;-83
2022/03/17 10:38:16;;;;;;;109.28;51.33;;;;;;;;;;5035035;28;20025;-83
2022/03/17 10:40:44;;;;;;;119.28;53.25;;;;;;;;;;5017136;28;20033;-83
2022/03/17 10:43:22;;;;;;;117.93;54.25;;;;;;;;;;5015303;28;20076;-84
2022/03/17 10:46:15;;;;;;;110.03;51.17;;;;;;;;;;5017190;28;20532;-84
2022/03/17 10:48:55;;;;;;;114.03;54.65;;;;;;;;;;5011688;28;20095;-87
2022/03/17 10:51:31;;;;;;;114.05;55.15;;;;;;;;;;5017538;28;20037;-87
2022/03/17 10:54:05;;;;;;;122.40;59.30;;;;;;;;;;5011056;28;20438;-87
2022/03/17 10:56:31;;;;;;;112.78;55.75;;;;;;;;;;5036182;28;20437;-86
2022/03/17 10:59:00;;;;;;;95.25;48.20;;;;;;;;;;5035692;28;20025;-87
2022/03/17 11:01:36;;;;;;;89.40;43.40;;;;;;;;;;5031667;28;20112;-88
2022/03/17 11:04:04;;;;;;;89.05;42.17;;;;;;;;;;5031105;28;20038;-88
2022/03/17 11:06:31;;;;;;;84.75;38.85;;;;;;;;;;5015609;28;20384;-88
2022/03/17 11:09:01;;;;;;;89.57;39.95;;;;;;;;;;5034572;28;20843;-87
2022/03/17 11:11:31;;;;;;;89.47;40.97;;;;;;;;;;5017496;28;20124;-87
2022/03/17 11:14:00;;;;;;;83.05;38.45;;;;;;;;;;5028364;28;20032;-88
2022/03/17 11:16:33;;;;;;;98.57;45.70;;;;;;;;;;5016949;28;20472;-87
2022/03/17 11:19:00;;;;;;;94.50;43.42;;;;;;;;;;5027275;28;20109;-87
2022/03/17 11:21:31;;;;;;;92.53;45.85;;;;;;;;;;5018684;28;20491;-87
2022/03/17 11:24:05;;;;;;;86.53;41.53;;;;;;;;;;5027303;28;20029;-89
2022/03/17 11:26:44;;;;;;;81.00;37.13;;;;;;;;;;5031212;28;20124;-89
2022/03/17 11:29:13;;;;;;;74.25;34.20;;;;;;;;;;5013101;28;20030;-88
2022/03/17 11:31:58;;;;;;;71.70;35.58;;;;;;;;;;5027707;28;20037;-88
2022/03/17 11:34:46;;;;;;;75.18;34.45;;;;;;;;;;5026190;28;20030;-88
2022/03/17 11:37:24;;;;;;;75.68;34.85;;;;;;;;;;5030244;28;20025;-89
2022/03/17 11:39:51;;;;;;;68.47;30.33;;;;;;;;;;5015968;28;20029;-89
2022/03/17 11:42:36;;;;;;;59.13;28.92;;;;;;;;;;5007928;28;20030;-88
2022/03/17 11:45:10;;;;;;;78.43;33.13;;;;;;;;;;5026124;28;20056;-88
2022/03/17 11:47:44;;;;;;;83.18;36.03;;;;;;;;;;5010071;28;20048;-89
2022/03/17 11:50:31;;;;;;;78.47;35.63;;;;;;;;;;5023919;28;20124;-88
2022/03/17 11:52:59;;;;;;;79.32;36.08;;;;;;;;;;5024201;28;20029;-89
2022/03/17 11:55:35;;;;;;;78.45;36.78;;;;;;;;;;5012063;28;20091;-90
2022/03/17 11:58:17;;;;;;;72.00;35.65;;;;;;;;;;5011261;28;20497;-89
2022/03/17 12:00:47;;;;;;;77.85;37.08;;;;;;;;;;5013280;28;20030;-90
2022/03/17 12:03:13;;;;;;;76.80;36.42;;;;;;;;;;5004938;28;20033;-89
2022/03/17 12:05:42;;;;;;;69.97;32.75;;;;;;;;;;5029149;28;20025;-90
2022/03/17 12:08:09;;;;;;;70.32;33.70;;;;;;;;;;5028733;28;20110;-89
2022/03/17 12:10:54;;;;;;;72.45;34.45;;;;;;;;;;5027986;28;20026;-88
2022/03/17 12:13:22;;;;;;;69.28;31.33;;;;;;;;;;5030011;28;20498;-89
2022/03/17 12:15:58;;;;;;;67.18;31.23;;;;;;;;;;5029498;28;20021;-89
2022/03/17 12:18:28;;;;;;;63.58;30.00;;;;;;;;;;5031550;28;20021;-88
2022/03/17 12:20:57;;;;;;;73.38;38.33;;;;;;;;;;5012246;28;20033;-88
2022/03/17 12:23:42;;;;;;;84.18;43.92;;;;;;;;;;5007117;28;20029;-90
2022/03/17 12:26:09;;;;;;;85.65;46.42;;;;;;;;;;5030663;28;20465;-88
2022/03/17 12:28:43;;;;;;;79.00;41.25;;;;;;;;;;5035726;28;20057;-88
2022/03/17 12:31:10;;;;;;;82.13;43.03;;;;;;;;;;5015883;28;20393;-88
2022/03/17 12:33:40;;;;;;;81.35;38.95;;;;;;;;;;5032919;28;20026;-88
2022/03/17 12:36:07;;;;;;;84.20;39.67;;;;;;;;;;5031492;28;20042;-88
2022/03/17 12:38:34;;;;;;;74.15;35.78;;;;;;;;;;5016200;28;20021;-90
2022/03/17 12:41:01;;;;;;;70.38;34.40;;;;;;;;;;5013075;28;20702;-89
2022/03/17 12:43:27;;;;;;;72.40;33.42;;;;;;;;;;5009616;28;20460;-89
2022/03/17 12:45:57;;;;;;;73.22;36.15;;;;;;;;;;5014051;28;20040;-86
2022/03/17 12:48:25;;;;;;;76.03;38.03;;;;;;;;;;5011333;28;20033;-89
2022/03/17 12:50:51;;;;;;;75.18;36.28;;;;;;;;;;5023970;28;20033;-88
2022/03/17 12:53:19;;;;;;;74.78;35.88;;;;;;;;;;5028266;28;20030;-87
2022/03/17 12:55:45;;;;;;;80.70;35.08;;;;;;;;;;5007670;28;20014;-87
2022/03/17 12:58:17;;;;;;;72.80;32.22;;;;;;;;;;5014549;28;20025;-87
2022/03/17 13:00:43;;;;;;;76.95;34.58;;;;;;;;;;4988522;28;20413;-86
2022/03/17 13:03:16;;;;;;;67.50;33.42;;;;;;;;;;5011280;28;20028;-88
2022/03/17 13:08:40;;;;;;;73.68;33.10;;;;;;;;;;5020683;28;20112;-87
2022/03/17 13:16:44;;;;;;;69.90;33.53;;;;;;;;;;5026211;28;20047;-87
2022/03/17 13:19:11;;;;;;;69.82;33.63;;;;;;;;;;5013473;28;20558;-88
2022/03/17 13:21:38;;;;;;;67.10;31.50;;;;;;;;;;5010139;28;20087;-88
2022/03/17 13:24:20;;;;;;;70.13;34.95;;;;;;;;;;5013391;28;20580;-88
2022/03/17 13:27:08;;;;;;;72.00;34.35;;;;;;;;;;5010497;28;20025;-89
2022/03/17 13:29:37;;;;;;;76.78;35.13;;;;;;;;;;5025276;28;20096;-90
2022/03/17 13:32:05;;;;;;;83.28;36.50;;;;;;;;;;5013606;28;20033;-89
2022/03/17 13:34:36;;;;;;;92.55;39.75;;;;;;;;;;5008780;28;20042;-89
2022/03/17 13:37:15;;;;;;;87.47;39.92;;;;;;;;;;5010935;28;20068;-89
2022/03/17 13:39:41;;;;;;;88.35;42.95;;;;;;;;;;5012257;28;20022;-89
2022/03/17 13:42:10;;;;;;;99.47;42.30;;;;;;;;;;5012517;28;20084;-90
2022/03/17 13:44:43;;;;;;;84.05;40.53;;;;;;;;;;5007345;28;20392;-89
2022/03/17 13:47:16;;;;;;;86.18;40.95;;;;;;;;;;5010655;28;20053;-89
2022/03/17 13:50:04;;;;;;;76.55;37.53;;;;;;;;;;5023312;28;20045;-89
2022/03/17 13:52:30;;;;;;;83.85;40.20;;;;;;;;;;5024627;28;20377;-88
2022/03/17 13:55:21;;;;;;;80.97;37.33;;;;;;;;;;5027685;28;20422;-89
2022/03/17 13:57:47;;;;;;;83.15;36.85;;;;;;;;;;5014283;28;20088;-88
2022/03/17 14:00:18;;;;;;;71.15;36.42;;;;;;;;;;5021945;28;20031;-88
2022/03/17 14:02:45;;;;;;;71.05;35.70;;;;;;;;;;5013648;28;20381;-87
2022/03/17 14:05:21;;;;;;;77.90;36.03;;;;;;;;;;5008805;28;20058;-89
2022/03/17 14:07:47;;;;;;;77.22;37.15;;;;;;;;;;5014973;28;20030;-88
2022/03/17 14:10:15;;;;;;;73.68;34.92;;;;;;;;;;5010857;28;20030;-88
2022/03/17 14:12:41;;;;;;;77.50;37.83;;;;;;;;;;5014567;28;20026;-88
2022/03/17 14:15:08;;;;;;;74.40;34.88;;;;;;;;;;5011839;28;20027;-88
2022/03/17 14:17:35;;;;;;;82.40;38.60;;;;;;;;;;5002970;28;20027;-86
2022/03/17 14:20:06;;;;;;;80.05;39.60;;;;;;;;;;5013234;28;20013;-86
2022/03/17 14:25:17;;;;;;;76.05;40.22;;;;;;;;;;5008129;28;20046;-88
2022/03/17 14:27:44;;;;;;;77.65;39.20;;;;;;;;;;5013081;28;20044;-87
2022/03/17 14:30:10;;;;;;;78.43;39.75;;;;;;;;;;5012596;28;20033;-87
2022/03/17 14:32:38;;;;;;;79.75;39.60;;;;;;;;;;5008014;28;20061;-88
2022/03/17 14:35:05;;;;;;;86.15;40.63;;;;;;;;;;5006615;28;20046;-87
2022/03/17 14:37:31;;;;;;;80.47;38.75;;;;;;;;;;5018096;28;20091;-86
2022/03/17 14:39:57;;;;;;;80.68;40.72;;;;;;;;;;5022010;28;20033;-87
2022/03/17 14:42:27;;;;;;;72.18;36.42;;;;;;;;;;5009639;28;20025;-86
2022/03/17 14:44:53;;;;;;;81.80;40.22;;;;;;;;;;5030502;28;20033;-86
2022/03/17 14:47:20;;;;;;;86.65;41.75;;;;;;;;;;5028344;28;20038;-87
2022/03/17 14:49:47;;;;;;;83.93;41.03;;;;;;;;;;4998768;28;20465;-88